Terminal Aerodrome Forecast
Issued by NWS

Home | Current Version | Previous Version | Text Only | Print | Product List | Glossary Off
Versions: 1 2 3 4 5 6 7 8 9 10 11 12 13 14

000
FTUS43 KAPX 251137
TAFTVC
TAF
KTVC 251137Z 2512/2612 00000KT 1SM BR BKN250
     FM251300 VRB03KT P6SM SCT250
     FM251800 02006KT P6SM SCT250
     FM260400 13004KT P6SM SHRA OVC080
     FM260600 14005KT 5SM SHRA BR OVC020=

USA.gov is the U.S. government's official web portal to all federal, state and local government web resources and services.